Flugplatz Berlin-Schönefeld International

Bericht für EDDB

vom 14.08. um 06:50 UTC

Wind 3 kt aus 140°

Sichtweite 10 km oder mehr

gute Sicht, keine Wolken < 5000 ft, keine CB, keine Wettererscheinungen (CAVOK)

Temperatur 21.0°C

Taupunkt 16.0°C

Luftfeuchtigkeit 73%

Luftdruck 1013 hPa

keine wesentliche Wetteränderung innerhalb den nächsten 2 Stunden zu erwarten

EDDB 140650Z 14003KT CAVOK 21/16 Q1013 NOSIG

Prognose für EDDB

vom 14.08. um 05:00 UTC

Zwischen 06:00 UTC und 06:00 UTC

Wind 6 kt aus 50°

Sichtweite 10 km oder mehr

keine signifikanten Wettererscheinungen

keine Wolken


Zwischen 15:00 UTC und 19:00 UTC zeitweise mit einer Wahrscheinlichkeit von 30%

Wind 20 kt aus 160° in Böen 30 kt

Code: TSRA

aufgebrochene Bewölkung in 2500 ft

TAF EDDB 140500Z 1406/1506 05006KT CAVOK PROB30 TEMPO 1415/1419 16020G30KT TSRA BKN025CB
Impressum